Time;durP1;ratioP1;P1;durP2;ratioP2;P2;SDS_P1;SDS_P2;PMS_P1;PMS_P2;Temp;Humidity;BMP_temperature;BMP_pressure;BME280_temperature;BME280_humidity;BME280_pressure;Samples;Min_cycle;Max_cycle;Signal;HPM_P1;HPM_P2
2022/03/16 00:02:20;;;;;;;8.00;6.65;;;10.50;74.30;;;;;;5010110;28;20089;-81
2022/03/16 00:04:50;;;;;;;9.10;6.50;;;10.50;74.30;;;;;;5006530;28;20034;-81
2022/03/16 00:07:17;;;;;;;7.63;5.70;;;10.40;74.30;;;;;;4980285;28;20238;-81
2022/03/16 00:09:43;;;;;;;8.48;6.13;;;10.40;74.20;;;;;;4996274;28;20043;-82
2022/03/16 00:12:09;;;;;;;8.73;6.70;;;10.40;74.30;;;;;;5008245;28;20061;-82
2022/03/16 00:14:36;;;;;;;8.57;6.40;;;10.30;74.20;;;;;;4997485;28;20025;-81
2022/03/16 00:17:02;;;;;;;7.13;5.78;;;10.30;74.30;;;;;;4996372;28;20037;-81
2022/03/16 00:19:28;;;;;;;8.23;6.40;;;10.30;74.20;;;;;;5007467;28;20026;-81
2022/03/16 00:21:56;;;;;;;7.82;6.22;;;10.30;74.30;;;;;;5002036;28;20034;-82
2022/03/16 00:24:21;;;;;;;7.88;6.20;;;10.20;74.20;;;;;;5001124;28;20033;-81
2022/03/16 00:26:47;;;;;;;8.52;6.18;;;10.20;74.20;;;;;;5009229;28;20558;-81
2022/03/16 00:29:13;;;;;;;7.35;6.05;;;10.20;74.20;;;;;;4999812;28;20443;-82
2022/03/16 00:31:39;;;;;;;7.95;5.97;;;10.20;74.30;;;;;;4993530;28;20111;-81
2022/03/16 00:34:07;;;;;;;7.75;5.85;;;10.10;74.30;;;;;;5001677;28;20529;-81
2022/03/16 00:36:33;;;;;;;7.95;6.00;;;10.10;74.30;;;;;;4966292;28;20129;-81
2022/03/16 00:38:59;;;;;;;6.70;5.07;;;10.10;74.30;;;;;;5013216;28;20099;-81
2022/03/16 00:41:26;;;;;;;7.93;5.82;;;10.10;74.30;;;;;;4999364;28;20032;-81
2022/03/16 00:43:53;;;;;;;7.30;5.50;;;10.00;74.30;;;;;;4984145;28;20038;-81
2022/03/16 00:46:18;;;;;;;7.90;6.00;;;10.00;74.30;;;;;;4998315;28;20037;-81
2022/03/16 00:48:44;;;;;;;7.28;5.78;;;10.00;74.40;;;;;;4983892;28;20563;-80
2022/03/16 00:51:11;;;;;;;7.63;5.65;;;9.90;74.40;;;;;;5006603;28;20074;-82
2022/03/16 00:53:39;;;;;;;7.78;6.07;;;9.90;74.50;;;;;;5000374;28;20040;-80
2022/03/16 00:56:06;;;;;;;7.20;5.55;;;9.90;74.40;;;;;;5022892;28;20101;-81
2022/03/16 00:58:32;;;;;;;7.32;6.03;;;9.90;74.40;;;;;;4997862;28;20080;-80
2022/03/16 01:01:05;;;;;;;6.60;5.60;;;9.80;74.40;;;;;;4998403;28;20045;-81
2022/03/16 01:03:31;;;;;;;7.80;6.13;;;9.80;74.40;;;;;;4999959;28;20537;-81
2022/03/16 01:05:57;;;;;;;7.80;6.03;;;9.80;74.40;;;;;;5000915;28;20053;-81
2022/03/16 01:08:23;;;;;;;7.28;5.63;;;9.80;74.40;;;;;;4986954;28;20108;-81
2022/03/16 01:10:49;;;;;;;7.28;5.80;;;9.70;74.40;;;;;;4987323;28;20379;-81
2022/03/16 01:13:14;;;;;;;7.75;5.75;;;9.70;74.30;;;;;;4988084;28;20067;-81
2022/03/16 01:15:41;;;;;;;8.20;5.90;;;9.70;74.40;;;;;;4984643;28;20061;-81
2022/03/16 01:18:06;;;;;;;8.05;6.30;;;9.60;74.30;;;;;;5016117;28;20107;-81
2022/03/16 01:20:32;;;;;;;7.10;5.50;;;9.60;74.90;;;;;;4998084;28;20053;-80
2022/03/16 01:22:58;;;;;;;7.03;5.30;;;9.60;74.30;;;;;;5014847;28;20037;-81
2022/03/16 01:25:24;;;;;;;6.38;5.50;;;9.60;74.20;;;;;;5000450;28;20091;-81
2022/03/16 01:27:50;;;;;;;7.40;5.75;;;9.50;74.20;;;;;;4995154;28;20040;-81
2022/03/16 01:30:16;;;;;;;7.60;5.68;;;9.50;74.20;;;;;;4999608;28;20033;-81
2022/03/16 01:32:42;;;;;;;8.27;5.53;;;9.50;74.20;;;;;;4994596;28;20062;-81
2022/03/16 01:35:09;;;;;;;8.23;5.80;;;9.40;74.20;;;;;;4979307;28;20141;-81
2022/03/16 01:37:35;;;;;;;7.10;5.47;;;9.40;74.80;;;;;;4997015;28;20056;-80
2022/03/16 01:40:02;;;;;;;8.02;5.97;;;9.40;74.20;;;;;;5014729;28;20116;-81
2022/03/16 01:42:29;;;;;;;7.68;6.05;;;9.40;74.20;;;;;;4997223;28;20112;-81
2022/03/16 01:44:59;;;;;;;6.93;5.28;;;9.40;74.20;;;;;;4996951;28;20041;-82
2022/03/16 01:47:26;;;;;;;7.70;5.95;;;9.30;74.10;;;;;;4986261;28;20367;-81
2022/03/16 01:49:55;;;;;;;7.80;5.78;;;9.30;74.10;;;;;;5013850;28;20032;-80
2022/03/16 01:52:29;;;;;;;7.57;5.57;;;9.30;74.20;;;;;;4994067;28;20121;-81
2022/03/16 01:54:55;;;;;;;7.15;5.38;;;9.30;74.10;;;;;;4992144;28;20083;-81
2022/03/16 01:57:23;;;;;;;7.85;5.88;;;9.20;74.00;;;;;;4994584;28;20128;-81
2022/03/16 01:59:50;;;;;;;10.82;6.43;;;9.20;74.10;;;;;;5010732;28;20075;-81
2022/03/16 02:02:16;;;;;;;7.38;5.47;;;9.20;74.10;;;;;;4998951;28;20473;-81
2022/03/16 02:04:44;;;;;;;7.40;5.88;;;9.20;74.10;;;;;;5004092;28;20065;-83
2022/03/16 02:07:10;;;;;;;7.55;6.03;;;9.10;74.10;;;;;;5007714;28;20025;-81
2022/03/16 02:09:36;;;;;;;6.88;5.40;;;9.10;74.10;;;;;;4982031;28;20025;-81
2022/03/16 02:12:03;;;;;;;8.10;6.28;;;9.10;74.10;;;;;;4998869;28;20037;-80
2022/03/16 02:14:29;;;;;;;8.32;6.32;;;9.10;74.10;;;;;;4998607;28;20057;-81
2022/03/16 02:16:56;;;;;;;8.93;6.75;;;9.00;74.00;;;;;;4994862;28;20029;-82
2022/03/16 02:19:23;;;;;;;9.10;6.07;;;9.00;74.00;;;;;;4995361;28;20037;-81
2022/03/16 02:21:57;;;;;;;7.50;5.78;;;9.00;74.10;;;;;;4998488;28;20071;-81
2022/03/16 02:24:24;;;;;;;7.75;6.25;;;9.00;74.10;;;;;;5025336;28;20044;-81
2022/03/16 02:26:50;;;;;;;9.52;6.65;;;8.90;74.30;;;;;;4997612;28;21599;-82
2022/03/16 02:29:16;;;;;;;8.90;6.25;;;8.90;74.00;;;;;;4995676;28;20044;-81
2022/03/16 02:31:42;;;;;;;8.30;6.60;;;8.90;74.00;;;;;;4986489;28;1130779;-81
2022/03/16 02:34:07;;;;;;;7.25;5.93;;;8.90;74.00;;;;;;5009414;28;20091;-81
2022/03/16 02:36:33;;;;;;;8.57;6.53;;;8.80;74.00;;;;;;4982698;28;20441;-81
2022/03/16 02:38:59;;;;;;;8.68;6.43;;;8.80;74.00;;;;;;4983360;28;20032;-81
2022/03/16 02:41:24;;;;;;;8.85;6.07;;;8.80;74.00;;;;;;4999057;28;20075;-81
2022/03/16 02:43:50;;;;;;;7.80;5.95;;;8.80;74.00;;;;;;5011889;28;20038;-81
2022/03/16 02:46:16;;;;;;;7.80;6.50;;;8.70;74.00;;;;;;5021086;28;20056;-82
2022/03/16 02:48:42;;;;;;;8.95;6.75;;;8.70;74.00;;;;;;4990791;28;20033;-81
2022/03/16 02:51:08;;;;;;;8.82;6.85;;;8.70;74.00;;;;;;4994501;28;20032;-81
2022/03/16 02:53:34;;;;;;;8.68;6.80;;;8.70;74.00;;;;;;5020228;28;20030;-80
2022/03/16 02:55:59;;;;;;;7.75;5.93;;;8.70;74.10;;;;;;5008600;28;20398;-81
2022/03/16 02:58:25;;;;;;;8.55;6.88;;;8.60;74.10;;;;;;5006944;28;20045;-80
2022/03/16 03:00:51;;;;;;;9.25;6.85;;;8.60;74.10;;;;;;4981194;28;20359;-82
2022/03/16 03:03:17;;;;;;;8.68;6.63;;;8.60;74.00;;;;;;4994699;28;20037;-81
2022/03/16 03:05:44;;;;;;;9.32;6.97;;;8.60;74.10;;;;;;4990657;28;20108;-81
2022/03/16 03:08:10;;;;;;;9.02;6.88;;;8.60;74.10;;;;;;4997347;28;20025;-82
2022/03/16 03:10:36;;;;;;;9.13;6.88;;;8.50;74.10;;;;;;5006022;28;20100;-81
2022/03/16 03:13:02;;;;;;;8.85;6.82;;;8.50;74.10;;;;;;4994863;28;20495;-82
2022/03/16 03:15:27;;;;;;;8.70;7.05;;;8.50;74.10;;;;;;4996750;28;20037;-80
2022/03/16 03:17:53;;;;;;;7.90;6.10;;;8.50;74.10;;;;;;4998513;28;20126;-81
2022/03/16 03:20:19;;;;;;;8.18;6.65;;;8.50;74.20;;;;;;5006777;28;20108;-82
2022/03/16 03:22:45;;;;;;;9.18;7.28;;;8.50;74.20;;;;;;4996558;28;20033;-80
2022/03/16 03:25:13;;;;;;;9.98;6.93;;;8.50;74.20;;;;;;5027134;28;20038;-82
2022/03/16 03:27:39;;;;;;;8.57;6.55;;;8.50;74.20;;;;;;4996651;28;20065;-81
2022/03/16 03:30:06;;;;;;;8.60;6.90;;;8.40;74.20;;;;;;4995507;28;20067;-81
2022/03/16 03:32:32;;;;;;;9.38;7.35;;;8.40;74.20;;;;;;4996477;28;20449;-81
2022/03/16 03:34:57;;;;;;;9.55;7.68;;;8.40;74.20;;;;;;4978206;28;20061;-81
2022/03/16 03:37:30;;;;;;;8.60;7.00;;;8.40;74.30;;;;;;5001796;28;20040;-81
2022/03/16 03:39:57;;;;;;;9.68;7.75;;;8.40;74.30;;;;;;4994916;28;20118;-81
2022/03/16 03:42:23;;;;;;;9.52;7.40;;;8.40;74.30;;;;;;5013471;28;20068;-81
2022/03/16 03:44:49;;;;;;;9.32;7.60;;;8.40;74.30;;;;;;5031329;28;20065;-81
2022/03/16 03:47:14;;;;;;;9.20;7.35;;;8.30;74.30;;;;;;4994289;28;20079;-81
2022/03/16 03:49:42;;;;;;;10.07;8.25;;;8.30;74.30;;;;;;4997268;28;20025;-81
2022/03/16 03:52:08;;;;;;;9.13;7.35;;;8.30;74.30;;;;;;4996636;28;20119;-81
2022/03/16 03:54:34;;;;;;;10.88;7.68;;;8.30;74.30;;;;;;5011623;28;20068;-81
2022/03/16 03:57:00;;;;;;;10.45;8.00;;;8.30;74.40;;;;;;4997812;28;20115;-80
2022/03/16 03:59:26;;;;;;;9.75;7.80;;;8.30;74.40;;;;;;5014134;28;20086;-81
2022/03/16 04:01:52;;;;;;;9.95;7.57;;;8.30;74.40;;;;;;4997919;28;20022;-82
2022/03/16 04:04:18;;;;;;;10.90;8.40;;;8.30;74.40;;;;;;5009594;28;20176;-81
2022/03/16 04:06:44;;;;;;;10.25;7.90;;;8.30;74.80;;;;;;4995240;28;20025;-81
2022/03/16 04:09:10;;;;;;;9.93;8.00;;;8.30;74.40;;;;;;4998179;28;20478;-80
2022/03/16 04:11:36;;;;;;;11.30;8.60;;;8.20;74.40;;;;;;4985191;28;20103;-81
2022/03/16 04:14:02;;;;;;;9.88;8.15;;;8.20;74.50;;;;;;5030925;28;20026;-81
2022/03/16 04:16:28;;;;;;;10.18;8.10;;;8.20;74.50;;;;;;4975694;28;20032;-80
2022/03/16 04:18:54;;;;;;;11.27;9.00;;;8.20;74.50;;;;;;5012676;28;20029;-81
2022/03/16 04:21:21;;;;;;;10.02;8.18;;;8.20;74.60;;;;;;4957137;28;20390;-81
2022/03/16 04:23:47;;;;;;;9.85;7.85;;;8.20;74.50;;;;;;5010185;28;20491;-80
2022/03/16 04:26:12;;;;;;;10.82;8.68;;;8.20;74.60;;;;;;5012430;28;20121;-81
2022/03/16 04:28:38;;;;;;;10.13;8.30;;;8.20;74.60;;;;;;5007290;28;20470;-81
2022/03/16 04:31:04;;;;;;;10.35;8.45;;;8.20;74.60;;;;;;4997405;28;20042;-81
2022/03/16 04:33:31;;;;;;;9.50;7.57;;;8.20;74.60;;;;;;4995589;28;20095;-81
2022/03/16 04:35:57;;;;;;;10.32;8.25;;;8.20;74.70;;;;;;5019671;28;20029;-81
2022/03/16 04:38:23;;;;;;;10.73;8.32;;;8.10;74.60;;;;;;5009357;28;20041;-82
2022/03/16 04:40:49;;;;;;;10.70;8.60;;;8.10;74.60;;;;;;4997849;28;20030;-81
2022/03/16 04:43:14;;;;;;;9.80;8.25;;;8.10;74.70;;;;;;4995301;28;20117;-81
2022/03/16 04:45:41;;;;;;;10.02;8.10;;;8.10;74.70;;;;;;5014038;28;20080;-81
2022/03/16 04:48:08;;;;;;;11.30;8.95;;;8.10;74.70;;;;;;4994783;28;20034;-81
2022/03/16 04:50:38;;;;;;;10.45;8.65;;;8.10;74.70;;;;;;5000856;28;20034;-81
2022/03/16 04:53:05;;;;;;;10.05;8.23;;;8.10;74.70;;;;;;4990549;28;20029;-80
2022/03/16 04:55:30;;;;;;;10.88;8.15;;;8.10;74.70;;;;;;4997817;28;20040;-81
2022/03/16 04:57:57;;;;;;;10.13;8.20;;;8.10;74.80;;;;;;4998000;28;20034;-81
2022/03/16 05:00:24;;;;;;;11.45;8.60;;;8.10;74.80;;;;;;4994566;28;20069;-82
2022/03/16 05:02:50;;;;;;;10.63;8.20;;;8.10;74.80;;;;;;5006765;28;20105;-81
2022/03/16 05:05:15;;;;;;;11.20;9.02;;;8.10;74.80;;;;;;5011125;28;20163;-81
2022/03/16 05:07:41;;;;;;;10.77;8.55;;;8.10;74.80;;;;;;5014913;28;20125;-81
2022/03/16 05:10:08;;;;;;;9.93;7.97;;;8.10;74.80;;;;;;5001656;28;20033;-81
2022/03/16 05:12:38;;;;;;;10.57;8.75;;;8.10;74.80;;;;;;5009791;28;20066;-82
2022/03/16 05:15:10;;;;;;;9.73;7.70;;;8.10;74.90;;;;;;5000982;28;20039;-81
2022/03/16 05:17:37;;;;;;;9.75;8.05;;;8.00;74.80;;;;;;5000756;28;20046;-81
2022/03/16 05:20:04;;;;;;;10.90;8.68;;;8.00;74.80;;;;;;4999090;28;20029;-82
2022/03/16 05:22:30;;;;;;;9.98;8.00;;;8.00;74.80;;;;;;5017864;28;20037;-81
2022/03/16 05:24:56;;;;;;;11.38;8.73;;;8.00;74.90;;;;;;5016574;28;20491;-81
2022/03/16 05:27:21;;;;;;;11.02;8.32;;;8.00;74.90;;;;;;5022155;28;20398;-81
2022/03/16 05:29:47;;;;;;;10.52;8.70;;;8.00;74.90;;;;;;4987028;28;20030;-81
2022/03/16 05:32:14;;;;;;;10.75;8.30;;;8.00;74.90;;;;;;5015882;28;20111;-81
2022/03/16 05:34:40;;;;;;;10.05;8.40;;;8.00;74.90;;;;;;4979488;28;20125;-80
2022/03/16 05:37:06;;;;;;;10.70;8.57;;;8.00;74.90;;;;;;4982713;28;20124;-82
2022/03/16 05:39:32;;;;;;;10.23;8.45;;;8.00;74.90;;;;;;4998070;28;20087;-82
2022/03/16 05:42:00;;;;;;;10.50;8.45;;;8.00;75.00;;;;;;4999745;28;20026;-82
2022/03/16 05:44:26;;;;;;;11.23;9.10;;;8.00;75.00;;;;;;5006929;28;20034;-81
2022/03/16 05:46:53;;;;;;;11.18;8.40;;;8.00;75.00;;;;;;5016834;28;20470;-82
2022/03/16 05:49:19;;;;;;;10.25;8.15;;;8.00;75.00;;;;;;4995715;28;20466;-81
2022/03/16 05:51:44;;;;;;;9.27;7.85;;;7.90;75.00;;;;;;4983968;28;20075;-82
2022/03/16 05:54:10;;;;;;;9.77;7.63;;;8.00;75.00;;;;;;5000525;28;20083;-80
2022/03/16 05:56:36;;;;;;;10.05;8.07;;;7.90;75.00;;;;;;4999098;28;20030;-82
2022/03/16 05:59:02;;;;;;;9.65;7.72;;;7.90;75.00;;;;;;5012551;28;20037;-82
2022/03/16 06:01:28;;;;;;;9.70;8.00;;;7.90;75.00;;;;;;5019809;28;20111;-81
2022/03/16 06:03:54;;;;;;;10.57;8.40;;;7.90;75.00;;;;;;4999718;28;20105;-81
2022/03/16 06:06:20;;;;;;;10.25;7.97;;;7.90;75.00;;;;;;5016345;28;20030;-82
2022/03/16 06:08:46;;;;;;;9.30;8.00;;;7.90;75.00;;;;;;4999747;28;20500;-82
2022/03/16 06:11:11;;;;;;;9.82;7.63;;;7.90;75.00;;;;;;4999540;28;20034;-80
2022/03/16 06:13:37;;;;;;;10.05;7.78;;;7.90;75.00;;;;;;4999193;28;20044;-82
2022/03/16 06:16:03;;;;;;;10.95;8.27;;;7.90;75.10;;;;;;5000065;28;20087;-80
2022/03/16 06:18:29;;;;;;;9.55;7.60;;;7.90;75.00;;;;;;4979695;28;20046;-82
2022/03/16 06:20:55;;;;;;;10.07;8.18;;;7.90;75.00;;;;;;4996512;28;20033;-81
2022/03/16 06:23:20;;;;;;;9.82;8.18;;;7.80;75.00;;;;;;4996459;28;20033;-81
2022/03/16 06:25:46;;;;;;;10.52;8.13;;;7.80;75.00;;;;;;5001186;28;20490;-82
2022/03/16 06:28:12;;;;;;;9.27;7.97;;;7.80;75.00;;;;;;5007955;28;20040;-81
2022/03/16 06:30:38;;;;;;;11.77;9.13;;;7.80;75.10;;;;;;4973323;28;20045;-83
2022/03/16 06:33:04;;;;;;;10.20;8.00;;;7.80;75.10;;;;;;4994826;28;20429;-81
2022/03/16 06:35:30;;;;;;;10.50;8.18;;;7.80;75.10;;;;;;4996148;28;20026;-80
2022/03/16 06:37:56;;;;;;;10.13;8.20;;;7.80;75.10;;;;;;4992983;28;20034;-80
2022/03/16 06:40:21;;;;;;;11.82;9.27;;;7.80;75.10;;;;;;4984526;28;20080;-81
2022/03/16 06:42:53;;;;;;;10.43;8.20;;;7.80;75.10;;;;;;5012545;28;20079;-81
2022/03/16 06:45:20;;;;;;;10.25;8.50;;;7.80;75.20;;;;;;4991234;28;20026;-81
2022/03/16 06:47:46;;;;;;;10.88;8.45;;;7.80;75.20;;;;;;5016662;28;20378;-80
2022/03/16 06:50:12;;;;;;;10.70;9.05;;;7.80;75.10;;;;;;5015978;28;20037;-80
2022/03/16 06:52:39;;;;;;;11.07;8.70;;;7.80;75.20;;;;;;5012128;28;20100;-81
2022/03/16 06:55:07;;;;;;;12.25;9.32;;;7.70;75.10;;;;;;5016444;28;20120;-81
2022/03/16 06:57:32;;;;;;;11.50;9.43;;;7.80;75.20;;;;;;4998908;28;20025;-80
2022/03/16 06:59:59;;;;;;;10.38;8.80;;;7.80;75.20;;;;;;4998987;28;20037;-80
2022/03/16 07:02:25;;;;;;;11.70;9.60;;;7.80;75.20;;;;;;4966679;28;20029;-82
2022/03/16 07:04:50;;;;;;;9.98;8.68;;;7.80;75.20;;;;;;4997540;28;20033;-79
2022/03/16 07:07:16;;;;;;;10.43;8.80;;;7.80;75.20;;;;;;4981265;28;20033;-77
2022/03/16 07:09:42;;;;;;;11.30;8.82;;;7.80;75.20;;;;;;4993866;28;20041;-78
2022/03/16 07:12:08;;;;;;;11.38;9.55;;;7.80;75.30;;;;;;5012244;28;20022;-77
2022/03/16 07:14:35;;;;;;;11.55;9.15;;;7.70;75.20;;;;;;4998321;28;20025;-79
2022/03/16 07:17:02;;;;;;;10.88;8.82;;;7.80;75.30;;;;;;4998805;28;20032;-77
2022/03/16 07:19:29;;;;;;;10.85;8.75;;;7.80;75.30;;;;;;5008028;28;20034;-78
2022/03/16 07:22:00;;;;;;;10.73;8.63;;;7.80;75.30;;;;;;5010201;28;20025;-77
2022/03/16 07:24:26;;;;;;;10.52;8.57;;;7.80;75.30;;;;;;5005307;28;20052;-78
2022/03/16 07:26:55;;;;;;;11.50;9.10;;;7.70;75.30;;;;;;4996665;28;20057;-76
2022/03/16 07:29:22;;;;;;;11.43;9.02;;;7.80;75.40;;;;;;4997494;28;20025;-78
2022/03/16 07:31:48;;;;;;;11.65;9.18;;;7.80;75.40;;;;;;4996262;28;20060;-77
2022/03/16 07:34:14;;;;;;;12.85;9.68;;;7.80;75.40;;;;;;4996124;28;20029;-77
2022/03/16 07:36:40;;;;;;;11.00;9.13;;;7.70;75.40;;;;;;5013302;28;20028;-77
2022/03/16 07:39:06;;;;;;;11.18;8.93;;;7.80;75.40;;;;;;5013571;28;20022;-78
2022/03/16 07:41:32;;;;;;;11.57;9.00;;;7.80;75.40;;;;;;5030752;28;20029;-77
2022/03/16 07:43:58;;;;;;;11.00;8.65;;;7.80;75.40;;;;;;4996472;28;20108;-77
2022/03/16 07:46:23;;;;;;;10.77;8.88;;;7.80;75.40;;;;;;4999142;28;20489;-77
2022/03/16 07:48:49;;;;;;;11.73;9.50;;;7.80;75.50;;;;;;5017234;28;20026;-77
2022/03/16 07:51:15;;;;;;;11.50;9.13;;;7.80;75.50;;;;;;4993264;28;20026;-77
2022/03/16 07:53:41;;;;;;;11.73;8.73;;;7.90;75.60;;;;;;5018707;28;20054;-77
2022/03/16 07:56:07;;;;;;;10.93;9.02;;;7.80;75.50;;;;;;4990237;28;20046;-78
2022/03/16 07:58:35;;;;;;;10.18;8.55;;;7.90;75.60;;;;;;5027881;28;20032;-78
2022/03/16 08:01:01;;;;;;;11.00;8.85;;;7.80;75.50;;;;;;4993227;28;20059;-78
2022/03/16 08:03:27;;;;;;;10.07;8.15;;;7.90;75.60;;;;;;5026674;28;20492;-78
2022/03/16 08:05:53;;;;;;;11.80;9.30;;;7.90;75.60;;;;;;4996254;28;20065;-78
2022/03/16 08:08:19;;;;;;;10.90;8.88;;;7.90;75.70;;;;;;4988106;28;20115;-78
2022/03/16 08:10:44;;;;;;;10.82;9.15;;;7.90;75.70;;;;;;4995428;28;20042;-78
2022/03/16 08:13:10;;;;;;;10.27;8.48;;;7.90;75.70;;;;;;5030445;28;20025;-78
2022/03/16 08:15:36;;;;;;;10.60;8.75;;;7.90;75.70;;;;;;5029092;28;20041;-79
2022/03/16 08:18:02;;;;;;;11.07;9.20;;;7.90;75.70;;;;;;5011356;28;20033;-80
2022/03/16 08:20:27;;;;;;;11.20;8.75;;;7.90;75.70;;;;;;4994466;28;20084;-78
2022/03/16 08:22:57;;;;;;;11.65;8.90;;;8.00;75.80;;;;;;5027210;28;20030;-78
2022/03/16 08:25:23;;;;;;;10.32;8.82;;;8.00;75.80;;;;;;4997282;28;20041;-78
2022/03/16 08:27:49;;;;;;;10.98;8.77;;;8.00;75.80;;;;;;5004024;28;20034;-77
2022/03/16 08:30:16;;;;;;;11.77;8.90;;;8.00;75.80;;;;;;5004345;28;20317;-78
2022/03/16 08:32:42;;;;;;;11.85;9.00;;;8.00;75.80;;;;;;5012178;28;20141;-78
2022/03/16 08:35:09;;;;;;;10.45;8.70;;;8.00;75.80;;;;;;5004316;28;20387;-76
2022/03/16 08:37:36;;;;;;;10.07;8.02;;;8.10;75.90;;;;;;5012339;28;20037;-78
2022/03/16 08:40:03;;;;;;;10.70;8.43;;;8.10;76.00;;;;;;5013130;28;20026;-77
2022/03/16 08:42:29;;;;;;;9.77;7.93;;;8.10;75.90;;;;;;4997513;28;20068;-78
2022/03/16 08:44:55;;;;;;;9.88;8.02;;;8.10;76.00;;;;;;5016241;28;20048;-78
2022/03/16 08:47:21;;;;;;;10.48;7.85;;;8.10;75.90;;;;;;5034354;28;20470;-79
2022/03/16 08:49:48;;;;;;;10.13;7.75;;;8.20;76.00;;;;;;5008429;28;20382;-79
2022/03/16 08:52:14;;;;;;;10.45;8.13;;;8.20;76.00;;;;;;4992898;28;20066;-79
2022/03/16 08:54:40;;;;;;;9.85;7.75;;;8.20;76.00;;;;;;5023712;28;20648;-81
2022/03/16 08:57:09;;;;;;;9.90;7.97;;;8.30;76.10;;;;;;5016983;28;20104;-80
2022/03/16 08:59:35;;;;;;;9.63;7.38;;;8.30;76.10;;;;;;4992391;28;20485;-78
2022/03/16 09:02:01;;;;;;;9.25;7.05;;;8.30;76.10;;;;;;4999858;28;20025;-78
2022/03/16 09:04:27;;;;;;;9.27;7.03;;;8.40;76.10;;;;;;5016473;28;20049;-79
2022/03/16 09:06:52;;;;;;;9.88;7.57;;;8.40;76.10;;;;;;4999688;28;20057;-79
2022/03/16 09:09:19;;;;;;;9.20;7.18;;;8.40;76.10;;;;;;4998702;28;20034;-79
2022/03/16 09:11:45;;;;;;;8.85;7.00;;;8.50;76.10;;;;;;4997642;28;20041;-80
2022/03/16 09:14:11;;;;;;;9.00;6.78;;;8.50;76.10;;;;;;4996728;28;20022;-79
2022/03/16 09:16:37;;;;;;;8.32;6.43;;;8.50;76.10;;;;;;5012213;28;20111;-79
2022/03/16 09:19:03;;;;;;;9.15;7.10;;;8.60;76.20;;;;;;4999713;28;20056;-79
2022/03/16 09:21:29;;;;;;;8.80;6.45;;;8.60;76.10;;;;;;5013159;28;20444;-79
2022/03/16 09:23:54;;;;;;;8.93;6.72;;;8.70;76.20;;;;;;4999641;28;20036;-80
2022/03/16 09:26:21;;;;;;;10.25;7.45;;;8.70;76.20;;;;;;5013076;28;20064;-79
2022/03/16 09:28:48;;;;;;;8.27;6.38;;;8.70;76.10;;;;;;5004765;28;20524;-79
2022/03/16 09:31:15;;;;;;;9.05;6.72;;;8.80;76.20;;;;;;5014935;28;20136;-80
2022/03/16 09:33:41;;;;;;;9.15;7.00;;;8.80;76.20;;;;;;4997161;28;20034;-79
2022/03/16 09:36:09;;;;;;;9.13;6.68;;;8.90;76.10;;;;;;5006561;28;20041;-78
2022/03/16 09:38:36;;;;;;;7.85;5.97;;;8.90;76.10;;;;;;4999927;28;20488;-79
2022/03/16 09:41:03;;;;;;;8.23;6.90;;;9.00;76.10;;;;;;5002731;28;20378;-79
2022/03/16 09:43:33;;;;;;;8.30;6.70;;;9.00;76.10;;;;;;4998281;28;20033;-79
2022/03/16 09:46:11;;;;;;;9.07;6.60;;;9.10;76.10;;;;;;4997971;28;20045;-80
2022/03/16 09:48:39;;;;;;;8.95;6.38;;;9.20;76.20;;;;;;4998034;28;20037;-79
2022/03/16 09:51:07;;;;;;;8.52;6.25;;;9.20;76.00;;;;;;4999456;28;20031;-79
2022/03/16 09:53:33;;;;;;;9.25;6.38;;;9.30;76.10;;;;;;4999558;28;20026;-80
2022/03/16 09:55:59;;;;;;;8.40;6.13;;;9.30;76.00;;;;;;4998667;28;20032;-79
2022/03/16 09:58:24;;;;;;;8.77;6.50;;;9.40;76.00;;;;;;4995392;28;20041;-79
2022/03/16 10:00:52;;;;;;;7.88;5.53;;;9.50;76.00;;;;;;4998645;28;20390;-79
2022/03/16 10:03:21;;;;;;;8.73;5.80;;;9.50;76.00;;;;;;4983336;28;20103;-79
2022/03/16 10:05:48;;;;;;;8.63;5.95;;;9.60;76.00;;;;;;5007843;28;20034;-80
2022/03/16 10:08:24;;;;;;;8.20;6.32;;;9.70;76.00;;;;;;4992485;28;20359;-81
2022/03/16 10:13:48;;;;;;;8.45;6.00;;;9.80;75.90;;;;;;5032134;28;20030;-80
2022/03/16 10:16:14;;;;;;;8.20;6.13;;;9.90;75.80;;;;;;5007370;28;20045;-79
2022/03/16 10:18:39;;;;;;;8.75;6.43;;;10.00;75.80;;;;;;4994246;28;20033;-79
2022/03/16 10:21:05;;;;;;;8.73;6.38;;;10.00;75.80;;;;;;5006901;28;20388;-79
2022/03/16 10:23:31;;;;;;;8.82;6.47;;;10.20;75.80;;;;;;5008045;28;20026;-80
2022/03/16 10:26:03;;;;;;;8.75;6.20;;;10.20;75.80;;;;;;5012434;28;20478;-79
2022/03/16 10:28:33;;;;;;;8.65;6.38;;;10.30;75.80;;;;;;5014878;28;20039;-79
2022/03/16 10:31:02;;;;;;;8.10;6.53;;;10.40;75.80;;;;;;4997393;28;20488;-79
2022/03/16 10:33:36;;;;;;;7.47;5.78;;;10.50;75.80;;;;;;5023988;28;20102;-79
2022/03/16 10:36:06;;;;;;;7.97;6.28;;;10.50;75.80;;;;;;4999154;28;20034;-80
2022/03/16 10:38:42;;;;;;;7.80;6.13;;;10.60;75.70;;;;;;4998789;28;20044;-80
2022/03/16 10:41:11;;;;;;;6.80;5.40;;;10.80;75.80;;;;;;4979202;28;20034;-79
2022/03/16 10:46:34;;;;;;;7.78;5.82;;;10.90;75.70;;;;;;4997903;28;20042;-79
2022/03/16 10:49:09;;;;;;;7.80;5.93;;;11.00;75.60;;;;;;4991887;28;20037;-79
2022/03/16 10:51:36;;;;;;;8.02;5.82;;;11.10;75.60;;;;;;4998268;28;20025;-81
2022/03/16 10:54:03;;;;;;;7.90;5.93;;;11.20;75.60;;;;;;4994732;28;20034;-79
2022/03/16 10:56:30;;;;;;;9.27;5.82;;;11.30;75.60;;;;;;4982281;28;20710;-80
2022/03/16 10:58:59;;;;;;;8.10;5.97;;;11.40;75.60;;;;;;5014205;28;20093;-80
2022/03/16 11:01:27;;;;;;;8.32;5.88;;;11.50;75.60;;;;;;5014709;28;20120;-80
2022/03/16 11:03:55;;;;;;;7.60;6.22;;;11.60;75.50;;;;;;5019759;28;20076;-79
2022/03/16 11:06:21;;;;;;;7.78;6.00;;;11.70;75.50;;;;;;4976401;28;20038;-79
2022/03/16 11:08:51;;;;;;;8.20;6.68;;;11.80;75.40;;;;;;5013818;28;20044;-80
2022/03/16 11:14:04;;;;;;;7.60;5.65;;;11.90;75.30;;;;;;5005954;28;20133;-80
2022/03/16 11:16:31;;;;;;;7.93;6.18;;;12.10;75.10;;;;;;4984409;28;20026;-80
2022/03/16 11:19:02;;;;;;;6.85;5.45;;;12.10;75.10;;;;;;5019650;28;20037;-80
2022/03/16 11:22:03;;;;;;;7.00;5.20;;;12.20;75.10;;;;;;5013975;28;20474;-79
2022/03/16 11:24:35;;;;;;;7.00;5.18;;;12.30;75.20;;;;;;4980091;28;20069;-80
2022/03/16 11:27:42;;;;;;;7.82;6.00;;;12.40;75.00;;;;;;5021797;28;20058;-81
2022/03/16 11:30:32;;;;;;;7.28;5.32;;;12.40;75.00;;;;;;4997235;28;20053;-79
2022/03/16 11:33:06;;;;;;;7.28;5.55;;;12.50;74.90;;;;;;5006385;28;20506;-80
2022/03/16 11:35:37;;;;;;;6.63;5.13;;;12.60;74.80;;;;;;5006072;28;20163;-80
2022/03/16 11:38:09;;;;;;;7.07;5.57;;;12.70;74.80;;;;;;5013463;28;20040;-80
2022/03/16 11:40:38;;;;;;;7.70;5.35;;;12.80;74.80;;;;;;5005109;28;20101;-80
2022/03/16 11:43:04;;;;;;;7.85;5.53;;;12.80;74.70;;;;;;4996843;28;20017;-80
2022/03/16 11:45:50;;;;;;;6.82;5.13;;;12.90;74.60;;;;;;5013527;28;20033;-80
2022/03/16 11:51:09;;;;;;;7.63;5.70;;;13.10;74.70;;;;;;5005907;28;20152;-80
2022/03/16 11:53:47;;;;;;;6.78;5.18;;;13.10;74.60;;;;;;5004204;28;20543;-79
2022/03/16 11:56:23;;;;;;;6.43;4.70;;;13.20;74.60;;;;;;5006559;28;20025;-79
2022/03/16 11:58:53;;;;;;;7.45;5.15;;;13.20;74.60;;;;;;5021238;28;20343;-79
2022/03/16 12:01:38;;;;;;;7.30;4.97;;;13.30;74.60;;;;;;4993719;28;20041;-79
2022/03/16 12:04:12;;;;;;;7.00;4.80;;;13.40;74.70;;;;;;5004910;28;20041;-79
2022/03/16 12:07:09;;;;;;;6.70;4.83;;;13.50;74.60;;;;;;4993866;28;20636;-79
2022/03/16 12:09:54;;;;;;;6.72;5.07;;;13.50;74.60;;;;;;5012293;28;20038;-76
2022/03/16 12:12:51;;;;;;;6.38;4.72;;;13.60;74.70;;;;;;5005802;28;20032;-79
2022/03/16 12:15:37;;;;;;;7.43;5.18;;;13.60;74.70;;;;;;5000933;28;20080;-79
2022/03/16 12:18:14;;;;;;;6.43;4.82;;;13.70;74.70;;;;;;5033206;28;20356;-77
2022/03/16 12:20:58;;;;;;;5.93;4.43;;;13.70;74.60;;;;;;5016659;28;20663;-78
2022/03/16 12:23:47;;;;;;;6.13;4.50;;;13.80;74.70;;;;;;5025238;28;20033;-80
2022/03/16 12:26:14;;;;;;;6.90;4.82;;;13.80;74.70;;;;;;4999866;28;20044;-76
2022/03/16 12:28:56;;;;;;;6.45;5.05;;;13.90;74.60;;;;;;4998869;28;20026;-77
2022/03/16 12:31:22;;;;;;;6.88;5.15;;;14.00;74.70;;;;;;5016177;28;20029;-75
2022/03/16 12:33:55;;;;;;;6.70;4.78;;;14.00;74.60;;;;;;5012581;28;20129;-78
2022/03/16 12:36:31;;;;;;;7.07;5.13;;;14.00;75.10;;;;;;5012451;28;20029;-77
2022/03/16 12:38:59;;;;;;;5.95;4.45;;;14.10;74.40;;;;;;5013537;28;20026;-77
2022/03/16 12:44:11;;;;;;;5.88;4.47;;;14.20;74.20;;;;;;5013545;28;20030;-77
2022/03/16 12:47:04;;;;;;;7.28;5.20;;;14.30;74.20;;;;;;5012567;28;20042;-77
2022/03/16 12:49:32;;;;;;;6.70;4.88;;;14.30;74.30;;;;;;5012534;28;20485;-76
2022/03/16 12:52:00;;;;;;;6.00;4.55;;;14.40;74.20;;;;;;5011921;28;20141;-77
2022/03/16 12:54:36;;;;;;;6.63;5.13;;;14.40;74.10;;;;;;5012644;28;20041;-77
2022/03/16 12:57:13;;;;;;;6.45;4.95;;;14.50;74.20;;;;;;5000913;28;20083;-76
2022/03/16 12:59:55;;;;;;;6.68;5.13;;;14.50;74.20;;;;;;5009964;28;20053;-77
2022/03/16 13:02:26;;;;;;;6.35;4.60;;;14.60;74.20;;;;;;5004335;28;20478;-76
2022/03/16 13:04:54;;;;;;;6.70;4.90;;;14.60;74.10;;;;;;5012687;28;20105;-76
2022/03/16 13:07:21;;;;;;;6.80;4.93;;;14.70;74.00;;;;;;5013600;28;20057;-76
2022/03/16 13:09:48;;;;;;;6.90;4.95;;;14.70;74.60;;;;;;4987840;28;20046;-76